Latest Weather Observations for Laverton

IDV60901

Issued at 12:31 am EST Thursday 18 July 2019 (issued every 10 minutes, with the page automatically refreshed every 10 minutes)

About weather observations | Map of Melbourne area stations | Latest observations for Melbourne area | Other Formats
Station Details ID: 087031 Name: LAVERTON RAAF Lat: -37.86 Lon: 144.76 Height: 20.1 m
Data from the previous 72 hours. | See also: Recent months at Laverton
Date/Time
EST
Temp
°C
App
Temp
°C
Dew
Point
°C
Rel
Hum
%
Delta-T
°C
Wind Press
QNH
hPa
Press
MSL
hPa
Rain since
9am
mm
Dir  Spd
km/h
Gust
km/h
Spd
kts
Gust
kts
18/12:30am 8.9 4.7 5.8 81 1.4 WNW 17 22 9 12 1016.6 1016.6 0.2
18/12:00am 9.7 6.3 5.7 76 1.8 W 13 20 7 11 1016.6 1016.6 0.2
 
Date/Time
EST
Temp
°C
App
Temp
°C
Dew
Point
°C
Rel
Hum
%
Delta-T
°C
Wind Press
QNH
hPa
Press
MSL
hPa
Rain since
9am
mm
Dir  Spd
km/h
Gust
km/h
Spd
kts
Gust
kts
17/11:30pm 9.9 6.2 6.1 77 1.8 WNW 15 17 8 9 1016.7 1016.7 0.2
17/11:00pm 9.9 5.9 6.6 80 1.5 WNW 17 20 9 11 1016.4 1016.4 0.2
17/10:30pm 9.9 5.9 6.6 80 1.5 WNW 17 22 9 12 1016.3 1016.3 0.2
17/10:00pm 10.3 6.8 7.2 81 1.5 W 15 20 8 11 1016.5 1016.5 0.2
17/09:30pm 10.7 7.0 7.9 83 1.4 WSW 17 24 9 13 1016.5 1016.5 0.2
17/09:00pm 10.8 7.2 8.4 85 1.2 W 17 26 9 14 1016.0 1016.0 0.0
17/08:30pm 10.3 7.0 8.1 86 1.1 W 15 20 8 11 1015.6 1015.6 0.0
17/08:00pm 10.9 7.2 8.0 82 1.4 W 17 24 9 13 1015.3 1015.3 0.0
17/07:30pm 11.5 7.2 7.8 78 1.8 W 20 30 11 16 1015.0 1015.0 0.0
17/07:00pm 11.3 6.9 7.4 77 1.9 W 20 28 11 15 1014.5 1014.5 0.0
17/06:30pm 11.6 7.2 6.7 72 2.3 W 19 26 10 14 1014.2 1014.2 0.0
17/06:00pm 11.9 7.5 7.2 73 2.3 W 20 28 11 15 1013.9 1013.9 0.0
17/05:30pm 12.0 7.2 7.3 73 2.3 W 22 32 12 17 1013.3 1013.3 0.0
17/05:00pm 12.1 7.7 7.6 74 2.2 W 20 32 11 17 1013.1 1013.1 0.0
17/04:30pm 12.8 7.5 6.8 67 2.9 W 24 35 13 19 1013.4 1013.4 0.0
17/04:00pm 13.1 7.4 6.7 65 3.1 WNW 26 37 14 20 1013.2 1013.2 0.0
17/03:30pm 13.8 7.4 6.9 63 3.3 W 30 44 16 24 1013.3 1013.3 0.0
17/03:00pm 13.1 7.5 7.1 67 2.9 W 26 43 14 23 1013.1 1013.1 0.0
17/02:30pm 13.2 7.1 8.1 71 2.5 WNW 30 43 16 23 1012.9 1012.9 0.0
17/02:00pm 12.8 7.5 8.3 74 2.2 WNW 26 44 14 24 1013.4 1013.4 0.0
17/01:42pm 11.5 6.5 9.4 87 1.1 WNW 26 33 14 18 1013.7 1013.7 0.0
17/01:30pm 11.5 7.0 9.9 90 0.8 WNW 24 33 13 18 1014.1 1014.1 0.0
17/01:25pm 11.5 7.3 9.8 89 0.9 WNW 22 33 12 18 1014.2 1014.2 0.0
17/01:12pm 11.6 7.4 9.9 89 0.9 WNW 22 30 12 16 1014.3 1014.3 0.0
17/01:00pm 11.6 7.0 9.7 88 1.0 WNW 24 35 13 19 1014.5 1014.5 0.0
17/12:56pm 11.6 7.2 9.0 84 1.3 WNW 22 35 12 19 1014.5 1014.5 0.0
17/12:30pm 12.7 8.4 8.0 73 2.3 WNW 20 33 11 18 1014.8 1014.8 0.0
17/12:00pm 12.5 8.3 7.6 72 2.4 NW 19 24 10 13 1015.4 1015.4 0.0
17/11:30am 12.0 8.2 7.5 74 2.2 NW 17 22 9 12 1016.1 1016.1 0.0
17/11:00am 11.6 7.8 7.7 77 1.9 NNW 17 24 9 13 1016.4 1016.4 0.0
17/10:30am 11.0 7.4 6.9 76 1.9 NNW 15 24 8 13 1016.8 1016.8 0.0
17/10:00am 11.1 6.8 6.8 75 2.0 NNW 19 26 10 14 1017.3 1017.3 0.0
17/09:30am 11.0 7.8 6.9 76 1.9 N 13 15 7 8 1017.5 1017.5 0.0
17/09:00am 10.9 7.4 7.0 77 1.9 NNW 15 20 8 11 1017.7 1017.7 0.8
17/08:30am 10.3 7.5 6.8 79 1.6 N 11 19 6 10 1017.8 1017.8 0.8
17/08:00am 10.0 6.7 6.5 79 1.6 N 13 20 7 11 1017.9 1017.9 0.8
17/07:30am 9.9 6.3 6.6 80 1.5 NNW 15 19 8 10 1018.0 1018.0 0.8
17/07:00am 9.7 5.7 6.6 81 1.4 NNW 17 20 9 11 1017.9 1017.9 0.8
17/06:30am 9.8 6.0 6.0 77 1.8 NW 15 24 8 13 1018.2 1018.2 0.8
17/06:00am 10.2 5.0 5.6 73 2.1 WNW 22 32 12 17 1018.5 1018.5 0.8
17/05:30am 10.4 5.8 5.8 73 2.1 W 19 26 10 14 1018.7 1018.7 0.8
17/05:00am 9.5 6.1 7.6 88 0.9 NNW 15 20 8 11 1018.8 1018.8 0.8
17/04:30am 9.2 7.1 8.1 93 0.5 NW 9 11 5 6 1019.1 1019.1 0.8
17/04:00am 8.9 7.7 8.0 94 0.4 W 4 7 2 4 1019.3 1019.3 0.8
17/03:30am 9.4 7.2 7.8 90 0.8 W 9 13 5 7 1019.9 1019.9 0.8
17/03:00am 9.8 7.5 7.4 85 1.1 W 9 11 5 6 1020.4 1020.4 0.8
17/02:30am 10.1 6.9 7.0 81 1.5 W 13 17 7 9 1020.7 1020.7 0.8
17/02:00am 10.2 6.2 6.7 79 1.6 WNW 17 24 9 13 1020.9 1020.9 0.8
17/01:30am 10.6 6.0 6.6 76 1.9 WNW 20 30 11 16 1021.2 1021.2 0.8
17/01:00am 10.7 5.7 6.6 76 1.9 WNW 22 30 12 16 1021.3 1021.3 0.8
17/12:30am 10.7 6.9 7.6 81 1.5 WNW 17 22 9 12 1021.3 1021.3 0.8
17/12:00am 10.4 6.8 8.2 86 1.1 NW 17 20 9 11 1021.5 1021.5 0.8
 
Date/Time
EST
Temp
°C
App
Temp
°C
Dew
Point
°C
Rel
Hum
%
Delta-T
°C
Wind Press
QNH
hPa
Press
MSL
hPa
Rain since
9am
mm
Dir  Spd
km/h
Gust
km/h
Spd
kts
Gust
kts
16/11:30pm 10.6 7.3 8.2 85 1.2 NW 15 19 8 10 1021.7 1021.7 0.8
16/11:00pm 10.6 7.4 8.4 86 1.1 WNW 15 19 8 10 1021.9 1021.9 0.8
16/10:30pm 10.7 7.5 8.6 87 1.0 WNW 15 20 8 11 1022.0 1022.0 0.8
16/10:00pm 10.5 8.3 9.3 92 0.6 NW 11 15 6 8 1022.2 1022.2 0.8
16/09:30pm 10.7 8.1 9.5 92 0.6 W 13 15 7 8 1022.5 1022.5 0.8
16/09:13pm 10.6 7.3 9.7 94 0.5 WNW 17 24 9 13 1022.5 1022.5 0.8
16/09:00pm 10.6 7.4 10.0 96 0.3 W 17 24 9 13 1022.5 1022.5 0.8
16/08:51pm 10.8 7.6 10.0 95 0.4 W 17 24 9 13 1022.6 1022.6 0.8
16/08:47pm 10.8 7.7 10.2 96 0.3 W 17 24 9 13 1022.6 1022.6 0.8
16/08:30pm 10.7 8.3 10.2 97 0.3 W 13 19 7 10 1022.7 1022.7 0.8
16/08:27pm 10.8 8.5 10.3 97 0.3 W 13 19 7 10 1022.7 1022.7 0.8
16/08:26pm 10.8 8.5 10.3 97 0.3 W 13 17 7 9 1022.7 1022.7 0.8
16/08:00pm 10.9 7.8 10.3 96 0.3 W 17 24 9 13 1022.8 1022.8 0.8
16/07:57pm 10.9 7.8 10.3 96 0.3 W 17 24 9 13 1022.8 1022.8 0.8
16/07:50pm 10.9 7.4 10.1 95 0.4 W 19 26 10 14 1022.7 1022.7 0.8
16/07:34pm 11.0 7.3 10.1 94 0.5 W 20 30 11 16 1022.7 1022.7 0.6
16/07:30pm 11.0 7.3 10.2 95 0.4 W 20 30 11 16 1022.6 1022.6 0.6
16/07:20pm 10.9 8.3 10.6 98 0.2 W 15 22 8 12 1022.5 1022.5 0.6
16/07:00pm 11.0 8.8 10.7 98 0.2 W 13 20 7 11 1022.6 1022.6 0.6
16/06:45pm 11.2 8.9 10.4 95 0.4 WSW 13 20 7 11 1022.8 1022.8 0.6
16/06:35pm 11.3 8.5 9.9 91 0.7 WSW 15 20 8 11 1022.6 1022.6 0.6
16/06:30pm 11.5 9.0 9.6 88 1.0 WSW 13 20 7 11 1022.6 1022.6 0.4
16/06:28pm 11.7 9.1 9.4 86 1.2 WSW 13 20 7 11 1022.5 1022.5 0.4
16/06:00pm 12.0 8.2 9.2 83 1.4 WSW 19 26 10 14 1022.2 1022.2 0.4
16/05:30pm 12.4 8.0 8.9 79 1.8 W 22 30 12 16 1022.1 1022.1 0.4
16/05:00pm 12.6 9.6 9.1 79 1.8 W 15 24 8 13 1022.0 1022.0 0.4
16/04:30pm 12.7 9.4 9.5 81 1.6 W 17 28 9 15 1021.9 1021.9 0.4
16/04:00pm 12.8 9.1 10.0 83 1.4 W 20 30 11 16 1021.8 1021.8 0.4
16/03:55pm 12.6 9.1 10.3 86 1.2 W 19 30 10 16 1021.8 1021.8 0.4
16/03:30pm 12.2 8.7 10.3 88 1.0 WSW 19 28 10 15 1022.1 1022.1 0.0
16/03:20pm 12.7 7.7 9.5 81 1.6 WSW 26 39 14 21 1021.9 1021.9 0.0
16/03:00pm 13.6 9.7 9.3 75 2.2 WSW 20 33 11 18 1021.9 1021.9 0.0
16/02:30pm 13.2 9.0 9.6 79 1.8 W 22 33 12 18 1021.9 1021.9 0.0
16/02:07pm 12.6 7.7 10.0 84 1.3 WSW 26 41 14 22 1022.0 1022.0 0.0
16/02:00pm 12.4 8.1 10.6 89 0.9 WSW 24 32 13 17 1022.0 1022.0 0.0
16/01:47pm 12.5 8.3 9.9 84 1.3 WSW 22 33 12 18 1022.0 1022.0 0.0
16/01:30pm 13.0 8.3 9.3 78 1.9 WSW 24 35 13 19 1021.9 1021.9 0.0
16/01:00pm 13.3 9.0 9.2 76 2.1 WSW 22 32 12 17 1022.2 1022.2 0.0
16/12:30pm 12.7 7.4 8.6 76 2.0 WSW 26 37 14 20 1022.6 1022.6 0.0
16/12:00pm 12.7 7.8 8.6 76 2.0 WSW 24 37 13 20 1023.0 1023.0 0.0
16/11:30am 12.6 7.7 8.3 75 2.1 WSW 24 39 13 21 1023.2 1023.2 0.0
16/11:00am 12.5 8.0 8.4 76 2.0 W 22 32 12 17 1023.4 1023.4 0.0
16/10:30am 12.2 7.8 8.9 80 1.7 WSW 22 33 12 18 1023.5 1023.5 0.0
16/10:00am 11.6 7.8 9.2 85 1.2 WSW 19 28 10 15 1023.6 1023.6 0.0
16/09:30am 11.3 8.0 9.4 88 1.0 WSW 17 28 9 15 1023.5 1023.5 0.0
16/09:00am 11.1 7.4 9.5 90 0.8 WSW 19 26 10 14 1023.3 1023.3 3.0
16/08:30am 10.7 7.1 10.5 99 0.1 WSW 20 28 11 15 1023.2 1023.2 3.0
16/08:06am 10.5 7.5 10.5 100 0.0 WSW 17 26 9 14 1023.1 1023.1 3.0
16/08:01am 10.4 7.3 10.4 100 0.0 WSW 17 26 9 14 1023.0 1023.0 3.0
16/08:00am 10.4 7.3 10.4 100 0.0 WSW 17 22 9 12 1023.0 1023.0 3.0
16/07:30am 10.3 8.0 10.3 100 0.0 WSW 13 20 7 11 1022.7 1022.7 2.2
16/07:17am 10.4 7.3 10.4 100 0.0 WSW 17 24 9 13 1022.6 1022.6 2.0
16/07:01am 10.4 7.7 10.4 100 0.0 WNW 15 22 8 12 1022.2 1022.2 1.2
16/07:00am 10.4 7.7 10.4 100 0.0 WNW 15 20 8 11 1022.3 1022.3 1.2
16/06:56am 10.4 8.1 10.4 100 0.0 WNW 13 19 7 10 1022.3 1022.3 1.2
16/06:44am 10.4 7.7 10.4 100 0.0 W 15 20 8 11 1022.3 1022.3 1.2
16/06:42am 10.4 7.7 10.4 100 0.0 W 15 20 8 11 1022.2 1022.2 1.2
16/06:30am 10.4 8.1 10.4 100 0.0 W 13 19 7 10 1022.3 1022.3 1.2
16/06:28am 10.4 8.1 10.4 100 0.0 W 13 19 7 10 1022.4 1022.4 1.2
16/06:00am 10.4 8.0 10.2 99 0.1 W 13 19 7 10 1022.2 1022.2 1.2
16/05:30am 10.4 7.7 10.2 99 0.1 WSW 15 22 8 12 1022.1 1022.1 1.0
16/05:10am 10.5 8.1 10.2 98 0.2 WSW 13 22 7 12 1022.0 1022.0 0.4
16/05:00am 10.6 7.0 9.8 95 0.4 WSW 19 26 10 14 1022.0 1022.0 0.0
16/04:54am 10.8 7.1 9.4 91 0.7 WSW 19 26 10 14 1022.0 1022.0 0.0
16/04:30am 11.3 8.2 8.9 85 1.2 W 15 20 8 11 1022.0 1022.0 0.0
16/04:00am 11.3 8.2 8.9 85 1.2 W 15 20 8 11 1022.1 1022.1 0.0
16/03:30am 11.2 7.9 9.6 90 0.8 W 17 26 9 14 1022.4 1022.4 0.0
16/03:00am 11.4 8.7 9.1 86 1.1 W 13 20 7 11 1022.5 1022.5 0.0
16/02:30am 11.4 8.3 8.8 84 1.3 WSW 15 22 8 12 1022.6 1022.6 0.0
16/02:00am 11.6 7.5 8.8 83 1.4 WSW 20 28 11 15 1022.7 1022.7 0.0
16/01:30am 11.5 7.6 8.5 82 1.5 WSW 19 24 10 13 1022.8 1022.8 0.0
16/01:00am 11.6 7.7 8.5 81 1.5 WSW 19 26 10 14 1022.9 1022.9 0.0
16/12:30am 11.8 7.9 8.8 82 1.5 WSW 19 30 10 16 1023.1 1023.1 0.0
16/12:00am 11.7 7.8 9.3 85 1.2 WSW 20 30 11 16 1023.0 1023.0 0.0
 
Date/Time
EST
Temp
°C
App
Temp
°C
Dew
Point
°C
Rel
Hum
%
Delta-T
°C
Wind Press
QNH
hPa
Press
MSL
hPa
Rain since
9am
mm
Dir  Spd
km/h
Gust
km/h
Spd
kts
Gust
kts
15/11:30pm 11.8 7.8 9.2 84 1.3 WSW 20 32 11 17 1023.1 1023.1 0.0
15/11:00pm 12.1 8.5 9.7 85 1.2 WSW 19 28 10 15 1023.1 1023.1 0.0
15/10:30pm 12.1 9.0 10.2 88 1.0 WSW 17 22 9 12 1023.0 1023.0 0.0
15/10:00pm 12.0 9.0 10.7 92 0.7 WSW 17 26 9 14 1023.2 1023.2 0.0
15/09:30pm 12.2 8.7 10.1 87 1.1 WSW 19 26 10 14 1023.3 1023.3 0.0
15/09:00pm 12.4 8.0 10.3 87 1.1 W 24 33 13 18 1023.4 1023.4 0.0
15/08:54pm 12.3 8.7 10.4 88 1.0 WSW 20 30 11 16 1023.4 1023.4 0.0
15/08:38pm 12.2 7.7 10.1 87 1.1 WSW 24 41 13 22 1023.2 1023.2 0.0
15/08:30pm 12.8 8.6 9.6 81 1.6 WSW 22 32 12 17 1023.2 1023.2 0.0
15/08:00pm 12.8 8.6 9.6 81 1.6 WSW 22 33 12 18 1023.0 1023.0 0.0
15/07:30pm 12.9 8.6 9.5 80 1.7 WSW 22 37 12 20 1022.7 1022.7 0.0
15/07:00pm 13.1 8.5 9.7 80 1.7 WSW 24 35 13 19 1022.3 1022.3 0.0
15/06:30pm 13.2 8.6 9.6 79 1.8 WSW 24 35 13 19 1022.4 1022.4 0.0
15/06:00pm 13.3 9.0 9.5 78 1.9 W 22 43 12 23 1022.4 1022.4 0.0
15/05:30pm 13.5 8.9 9.6 77 2.0 WSW 24 37 13 20 1021.8 1021.8 0.0
15/05:00pm 13.7 8.7 9.6 76 2.1 WSW 26 37 14 20 1021.5 1021.5 0.0
15/04:30pm 13.8 8.7 9.3 74 2.3 WSW 26 39 14 21 1021.6 1021.6 0.0
15/04:00pm 13.8 9.1 9.3 74 2.3 WSW 24 35 13 19 1021.4 1021.4 0.0
15/03:30pm 13.9 8.3 8.9 72 2.5 WSW 28 37 15 20 1021.3 1021.3 0.0
15/03:00pm 13.9 9.5 8.9 72 2.5 WSW 22 35 12 19 1021.2 1021.2 0.0
15/02:30pm 14.5 9.7 8.7 68 2.9 WSW 24 41 13 22 1021.2 1021.2 0.0
15/02:00pm 13.4 8.9 8.5 72 2.4 WSW 22 33 12 18 1021.5 1021.5 0.0
15/01:30pm 13.0 8.0 8.1 72 2.4 WSW 24 41 13 22 1021.9 1021.9 0.0
15/01:00pm 12.8 6.9 7.5 70 2.6 WSW 28 41 15 22 1022.1 1022.1 0.0
15/12:30pm 13.0 8.3 7.7 70 2.6 WSW 22 35 12 19 1022.3 1022.3 0.0
15/12:00pm 12.7 7.9 7.4 70 2.6 WSW 22 32 12 17 1022.8 1022.8 0.0
15/11:30am 12.7 7.6 7.6 71 2.5 WSW 24 33 13 18 1022.8 1022.8 0.0
15/11:00am 12.1 7.7 7.2 72 2.4 WSW 20 26 11 14 1022.9 1022.9 0.0
15/10:30am 11.6 7.2 7.3 75 2.1 W 20 30 11 16 1023.1 1023.1 0.0
15/10:00am 11.2 6.3 7.1 76 1.9 WSW 22 32 12 17 1022.9 1022.9 0.0
15/09:30am 10.3 5.9 7.4 82 1.4 WSW 20 30 11 16 1022.6 1022.6 0.0
15/09:00am 9.3 6.2 7.1 86 1.0 W 13 22 7 12 1022.5 1022.5 1.4
15/08:30am 8.6 5.1 7.1 90 0.7 W 15 22 8 12 1022.3 1022.3 1.4
15/08:00am 8.6 5.4 6.7 88 0.9 W 13 19 7 10 1021.9 1021.9 1.4
15/07:30am 8.8 4.9 6.9 88 0.9 WSW 17 24 9 13 1021.5 1021.5 1.4
15/07:00am 8.7 4.3 6.7 87 0.9 WSW 19 24 10 13 1020.8 1020.8 1.4
15/06:30am 8.7 4.2 6.8 88 0.9 WSW 20 28 11 15 1020.2 1020.2 1.4
15/06:00am 9.0 4.7 6.8 86 1.0 WSW 19 28 10 15 1019.9 1019.9 1.4
15/05:30am 9.1 4.6 6.9 86 1.0 WSW 20 28 11 15 1019.6 1019.6 1.4
15/05:00am 8.8 5.3 7.3 90 0.7 WSW 15 24 8 13 1019.4 1019.4 1.4
15/04:30am 9.0 3.8 7.3 89 0.8 WSW 24 32 13 17 1018.6 1018.6 1.4
15/04:00am 9.1 4.7 7.4 89 0.8 WSW 20 28 11 15 1018.7 1018.7 1.2
15/03:30am 9.1 4.6 7.1 87 0.9 WSW 20 30 11 16 1018.7 1018.7 1.2
15/03:00am 9.4 4.5 6.8 84 1.2 SW 22 32 12 17 1018.5 1018.5 1.0
15/02:30am 9.5 5.0 6.8 83 1.3 SW 20 30 11 16 1017.9 1017.9 1.0
15/02:00am 9.7 4.0 6.6 81 1.4 SW 26 37 14 20 1017.5 1017.5 1.0
15/01:47am 9.7 3.6 6.6 81 1.4 SW 28 46 15 25 1017.2 1017.2 1.0
15/01:30am 9.7 3.6 6.8 82 1.4 SW 28 41 15 22 1016.7 1016.7 1.0
15/01:00am 9.8 3.4 6.9 82 1.4 WSW 30 48 16 26 1016.3 1016.3 1.0
15/12:54am 9.8 3.8 7.1 83 1.3 WSW 28 48 15 26 1016.3 1016.3 1.0

Latest Capital City Observations: Canberra | Sydney | Melbourne | Brisbane | Adelaide | Perth | Hobart | Darwin

Other formats

Comma delimited format used in spreadsheet applications
http://www.bom.gov.au/fwo/IDV60901/IDV60901.94865.axf

JavaScript Object Notation format (JSON) in row-major order
http://www.bom.gov.au/fwo/IDV60901/IDV60901.94865.json

Data quality

Most of these data are generated automatically and are frequently updated. Quality checks on data are not normally performed. It is possible for incorrect values to appear. Refer to information at About Latest Weather Observations and please check the disclaimer before using these data.